Řízení letového provozu České republiky  
Aktualizace dat:  18.12.2018 17:02:09 UTC English version
   METEO Zobrazení stránky:  18.12.2018 17:02:54 UTC  
vysvětlivky
METAR EDDB 181650Z 15006KT 9999 FEW047 02/02 Q1025 NOSIG=
METAR EDDC 181650Z 15009KT 9000 SCT003 01/00 Q1024 TEMPO BKN003=
METAR EDDE 181650Z 18004KT CAVOK 02/M00 Q1022 NOSIG=
METAR EDDF 181650Z 06008KT 9999 FEW016 04/02 Q1020 NOSIG=
METAR EDDM 181650Z 08008KT 1400 R08L/1700D R08R/P2000N BCFG FEW001 OVC002 01/01 Q1022 TEMPO 0500 FG=
METAR EDDN 181650Z 13011KT 9999 BKN009 03/01 Q1023 NOSIG=
METAR EDDP 181650Z 14007KT 9999 FEW032 02/00 Q1023 NOSIG=
METAR EDDT 181650Z 15006KT 110V170 CAVOK 05/03 Q1024 NOSIG=
METAR EDQM 181650Z 15005KT 110V170 9999 OVC014 01/M00 Q1022=
METAR EPBY 181700Z 11007KT 2100 BR OVC004 00/M01 Q1027 =
METAR EPGD 181700Z 15009KT 5000 BR BKN003 OVC006 M02/M03 Q1027 R11/190095 =
METAR EPKK 181700Z 02003KT 2000 BR FEW040 M00/M01 Q1028 =
METAR EPKT 181700Z 10005KT 2000 BR OVC046 M01/M02 Q1027 =
METAR EPLL 181700Z 11003KT 1400 R25/2000N BR NSC M00/M01 Q1027 =
METAR EPPO 181700Z 14004KT 2000 BR OVC006 02/02 Q1026 =
METAR EPRZ 181700Z 02004KT 5000 BR OVC020 M01/M03 Q1029 =
METAR EPWA 181700Z 10003KT 040V130 5000 BR BKN035 M01/M02 Q1029 NOSIG=
METAR EPWR 181700Z 14004KT 9999 BKN016 03/02 Q1027 =
METAR LHBP 181700Z 00000KT 2200 BR SCT049 M05/M05 Q1029 NOSIG=
METAR LHSM 181545Z 14003KT 8000 FEW033 M01/M01 Q1029=
METAR LKBC 181700Z AUTO 08004KT CAVOK M01/M01 Q1023=
METAR LKCV 181700Z 13006KT 9999 BKN015 02/01 Q1026 NOSIG RMK WHT WHT=
METAR LKKB 181700Z 05003KT 0400 R24/0750U SCT002 M01/M01 Q1025 NOSIG RMK RED RED=
METAR LKKU NIL
METAR LKKV 181700Z 14003KT 110V180 9999 SCT012 M01/M01 Q1023 R29/////// RMK REG QNH 1021=
METAR LKLN 181700Z AUTO 00000KT 9000 NCD M01/M01 Q1024=
METAR LKMT 181700Z 22002KT 4000 BR OVC039 01/M01 Q1027 NOSIG RMK REG QNH 1021=
METAR LKNA 181700Z 10003KT 060V120 7000 SCT009 BKN014 01/M00 Q1026 NOSIG RMK GRN GRN=
METAR LKPD 181700Z 10004KT 9999 SCT013 OVC020 02/01 Q1026 NOSIG RMK WHT WHT=
METAR LKPR 181700Z 11005KT CAVOK 00/M01 Q1025 NOSIG RMK REG QNH 1021=
METAR LKTB 181700Z 10004KT 5000 BR OVC020 00/M01 Q1027 NOSIG RMK REG QNH 1021=
METAR LKVO NIL
METAR LOWI 181650Z 23003KT 190V260 CAVOK M03/M06 Q1024 NOSIG=
METAR LOWL 181650Z 09003KT CAVOK 01/M01 Q1025 NOSIG=
METAR LOWS 181650Z 14004KT CAVOK 01/M03 Q1023 NOSIG=
METAR LOWW 181650Z VRB02KT 9000 FEW120 01/M01 Q1028 BECMG 3000 BR=
METAR LZIB 181700Z 04004KT 350V060 3500 BR FEW046 M00/M01 Q1028 R04/710695 R13/15//95 NOSIG=
METAR LZKZ 181700Z 03006KT CAVOK M02/M04 Q1028 NOSIG=
METAR LZMC 181600Z 00000KT 5000 BCFG BR BKN044 01/M00 Q1028=
METAR LZPP 181630Z 23003KT 5000 BR FEW045 M03/M04 Q1028=
METAR LZSL 181630Z 00000KT 9999 FEW010 M06/M07 Q1028=
METAR LZTT 181700Z 29002KT 9999 BKN029 M06/M07 Q1026 NOSIG=
METAR LZZI 181630Z 11002KT 8000 BKN036 00/M02 Q1027=